createdAt,value
2023-03-27T00:00:44.568Z,6.65
2023-03-27T00:01:47.345Z,6.55
2023-03-27T00:02:50.980Z,6.63
2023-03-27T00:03:55.943Z,6.59
2023-03-27T00:05:00.888Z,6.55
2023-03-27T00:06:19.111Z,6.64
2023-03-27T00:07:23.542Z,6.74
2023-03-27T00:08:27.677Z,6.80
2023-03-27T00:09:34.275Z,6.78
2023-03-27T00:10:38.539Z,6.77
2023-03-27T00:11:42.534Z,6.75
2023-03-27T00:12:46.605Z,6.79
2023-03-27T00:13:56.087Z,6.77
2023-03-27T00:14:59.585Z,6.84
2023-03-27T00:16:04.314Z,6.79
2023-03-27T00:17:07.725Z,6.80
2023-03-27T00:18:11.166Z,6.76
2023-03-27T00:19:14.634Z,6.73
2023-03-27T00:20:19.933Z,6.78
2023-03-27T00:21:23.443Z,6.74
2023-03-27T00:22:27.028Z,6.83
2023-03-27T00:23:30.538Z,6.79
2023-03-27T00:24:34.037Z,6.83
2023-03-27T00:25:36.696Z,6.85
2023-03-27T00:26:42.262Z,6.84
2023-03-27T00:27:45.377Z,6.82
2023-03-27T00:28:51.512Z,6.77
2023-03-27T00:29:55.009Z,6.78
2023-03-27T00:31:00.365Z,6.77
2023-03-27T00:32:03.919Z,6.75
2023-03-27T00:33:08.825Z,6.69
2023-03-27T00:34:12.892Z,6.67
2023-03-27T00:35:16.893Z,6.65
2023-03-27T00:36:19.582Z,6.73
2023-03-27T00:37:25.008Z,6.80
2023-03-27T00:38:28.634Z,6.85
2023-03-27T00:39:32.415Z,6.86
2023-03-27T00:40:34.689Z,6.81
2023-03-27T00:41:39.204Z,6.85
2023-03-27T00:42:41.758Z,6.85
2023-03-27T00:43:44.335Z,6.82
2023-03-27T00:44:51.696Z,6.88
2023-03-27T00:45:59.506Z,6.81
2023-03-27T00:47:04.411Z,6.79
2023-03-27T00:48:09.222Z,6.73
2023-03-27T00:49:13.553Z,6.71
2023-03-27T00:50:19.253Z,6.72
2023-03-27T00:51:25.876Z,6.76
2023-03-27T00:52:30.955Z,6.77
2023-03-27T00:53:35.423Z,6.73
2023-03-27T00:54:39.330Z,6.76
2023-03-27T00:55:44.628Z,6.74
2023-03-27T00:56:49.260Z,6.75
2023-03-27T00:57:56.313Z,6.73
2023-03-27T00:59:04.424Z,6.72
2023-03-27T01:00:10.710Z,6.69
2023-03-27T01:01:17.632Z,6.72
2023-03-27T01:02:22.880Z,6.67
2023-03-27T01:03:28.077Z,6.73
2023-03-27T01:04:32.391Z,6.70
2023-03-27T01:05:36.974Z,6.67
2023-03-27T01:06:42.469Z,6.72
2023-03-27T01:08:01.513Z,6.71
2023-03-27T01:08:53.096Z,6.69
2023-03-27T01:09:56.802Z,6.69
2023-03-27T01:11:17.431Z,6.67
2023-03-27T01:12:22.610Z,6.70
2023-03-27T01:13:28.425Z,6.72
2023-03-27T01:14:42.682Z,6.71
2023-03-27T01:15:50.896Z,6.63
2023-03-27T01:17:11.712Z,6.56
2023-03-27T01:18:22.839Z,6.50
2023-03-27T01:19:27.692Z,6.44
2023-03-27T01:20:42.086Z,6.24
2023-03-27T01:22:03.857Z,6.22
2023-03-27T01:23:36.055Z,6.20
2023-03-27T01:24:36.325Z,6.19
2023-03-27T01:25:44.673Z,6.12
2023-03-27T01:26:55.807Z,6.16
2023-03-27T01:28:06.830Z,6.22
2023-03-27T01:29:25.222Z,6.23
2023-03-27T01:30:42.615Z,6.31
2023-03-27T01:31:57.806Z,6.33
2023-03-27T01:33:16.600Z,6.32
2023-03-27T01:34:21.230Z,6.29
2023-03-27T01:35:28.953Z,6.35
2023-03-27T01:36:34.206Z,6.29
2023-03-27T01:37:56.740Z,6.32
2023-03-27T01:39:04.754Z,6.34
2023-03-27T01:40:18.782Z,6.36
2023-03-27T01:41:24.009Z,6.42
2023-03-27T01:42:28.074Z,6.40
2023-03-27T01:43:37.665Z,6.36
2023-03-27T01:44:51.579Z,6.35
2023-03-27T01:45:58.351Z,6.34
2023-03-27T01:47:08.867Z,6.34
2023-03-27T01:48:13.699Z,6.38
2023-03-27T01:49:26.351Z,6.33
2023-03-27T01:50:32.188Z,6.39
2023-03-27T01:51:39.845Z,6.40
2023-03-27T01:52:46.030Z,6.38
2023-03-27T01:53:52.646Z,6.32
2023-03-27T01:54:58.768Z,6.31
2023-03-27T01:56:12.623Z,6.31
2023-03-27T01:57:18.121Z,6.25
2023-03-27T01:58:24.141Z,6.32
2023-03-27T01:59:27.307Z,6.25
2023-03-27T02:00:51.082Z,6.30
2023-03-27T02:01:42.442Z,6.10
2023-03-27T02:02:47.745Z,6.16
2023-03-27T02:03:53.138Z,6.14
2023-03-27T02:05:00.938Z,6.11
2023-03-27T02:06:10.667Z,6.11
2023-03-27T02:07:17.362Z,6.17
2023-03-27T02:08:26.796Z,6.16
2023-03-27T02:09:35.068Z,6.18
2023-03-27T02:10:44.740Z,6.18
2023-03-27T02:12:08.972Z,6.19
2023-03-27T02:13:18.617Z,6.21
2023-03-27T02:14:25.169Z,6.19
2023-03-27T02:15:30.238Z,6.11
2023-03-27T02:16:36.568Z,6.15
2023-03-27T02:17:43.017Z,6.18
2023-03-27T02:18:48.107Z,6.16
2023-03-27T02:19:52.719Z,6.06
2023-03-27T02:20:57.001Z,6.12
2023-03-27T02:22:01.820Z,6.16
2023-03-27T02:23:09.229Z,6.14
2023-03-27T02:24:14.818Z,6.16
2023-03-27T02:25:38.702Z,6.12
2023-03-27T02:26:44.388Z,6.14
2023-03-27T02:27:51.032Z,6.14
2023-03-27T02:29:05.789Z,6.08
2023-03-27T02:30:11.091Z,6.05
2023-03-27T02:31:32.673Z,6.04
2023-03-27T02:32:36.256Z,6.05
2023-03-27T02:33:46.861Z,6.04
2023-03-27T02:34:59.483Z,6.04
2023-03-27T02:36:11.389Z,5.97
2023-03-27T02:37:21.739Z,5.97
2023-03-27T02:38:45.451Z,5.96
2023-03-27T02:39:50.174Z,5.97
2023-03-27T02:40:58.467Z,6.02
2023-03-27T02:42:12.504Z,5.93
2023-03-27T02:43:19.657Z,5.89
2023-03-27T02:44:36.155Z,5.89
2023-03-27T02:45:46.666Z,5.87
2023-03-27T02:47:03.155Z,5.86
2023-03-27T02:48:17.045Z,5.81
2023-03-27T02:49:22.189Z,5.70
2023-03-27T02:50:27.403Z,5.71
2023-03-27T02:51:33.635Z,5.69
2023-03-27T02:52:39.040Z,5.64
2023-03-27T02:53:44.301Z,5.61
2023-03-27T02:54:50.599Z,5.61
2023-03-27T02:55:55.641Z,5.63
2023-03-27T02:57:00.957Z,5.62
2023-03-27T02:58:07.849Z,5.62
2023-03-27T02:59:31.256Z,5.57
2023-03-27T03:00:40.429Z,5.55
2023-03-27T03:02:01.980Z,5.45
2023-03-27T03:03:09.142Z,5.42
2023-03-27T03:04:15.780Z,5.43
2023-03-27T03:05:24.186Z,5.38
2023-03-27T03:06:28.813Z,5.30
2023-03-27T03:07:33.464Z,5.28
2023-03-27T03:08:39.809Z,5.33
2023-03-27T03:09:45.600Z,5.38
2023-03-27T03:10:48.115Z,5.36
2023-03-27T03:11:53.101Z,5.38
2023-03-27T03:12:58.934Z,5.36
2023-03-27T03:14:03.514Z,5.40
2023-03-27T03:15:11.116Z,5.39
2023-03-27T03:16:14.520Z,5.42
2023-03-27T03:17:17.146Z,5.39
2023-03-27T03:18:21.441Z,5.44
2023-03-27T03:19:24.758Z,5.45
2023-03-27T03:20:31.008Z,5.37
2023-03-27T03:21:37.888Z,5.41
2023-03-27T03:22:46.961Z,5.42
2023-03-27T03:23:58.366Z,5.41
2023-03-27T03:24:59.117Z,5.42
2023-03-27T03:26:04.079Z,5.47
2023-03-27T03:27:09.369Z,5.49
2023-03-27T03:28:18.467Z,5.52
2023-03-27T03:29:23.795Z,5.50
2023-03-27T03:30:31.561Z,5.46
2023-03-27T03:31:46.896Z,5.42
2023-03-27T03:32:49.148Z,5.33
2023-03-27T03:33:54.316Z,5.34
2023-03-27T03:34:57.530Z,5.37
2023-03-27T03:36:03.418Z,5.38
2023-03-27T03:37:11.420Z,5.36
2023-03-27T03:38:19.667Z,5.34
2023-03-27T03:39:23.077Z,5.37
2023-03-27T03:40:26.862Z,5.36
2023-03-27T03:41:31.989Z,5.39
2023-03-27T03:42:36.773Z,5.39
2023-03-27T03:43:42.399Z,5.40
2023-03-27T03:44:45.945Z,5.35
2023-03-27T03:45:51.086Z,5.32
2023-03-27T03:46:54.429Z,5.37
2023-03-27T03:47:57.185Z,5.34
2023-03-27T03:49:02.164Z,5.34
2023-03-27T03:50:07.776Z,5.37
2023-03-27T03:51:11.584Z,5.43
2023-03-27T03:52:14.908Z,5.40
2023-03-27T03:53:20.035Z,5.38
2023-03-27T03:54:23.466Z,5.40
2023-03-27T03:55:26.943Z,5.41
2023-03-27T03:56:31.246Z,5.40
2023-03-27T03:57:34.873Z,5.43
2023-03-27T03:58:45.818Z,5.45
2023-03-27T03:59:49.070Z,5.47
2023-03-27T04:00:56.915Z,5.49
2023-03-27T04:02:08.262Z,5.45
2023-03-27T04:03:11.866Z,5.42
2023-03-27T04:04:18.912Z,5.49
2023-03-27T04:05:26.530Z,5.50
2023-03-27T04:06:32.016Z,5.58
2023-03-27T04:07:36.056Z,5.64
2023-03-27T04:08:57.056Z,5.61
2023-03-27T04:10:14.783Z,5.59
2023-03-27T04:11:19.040Z,5.55
2023-03-27T04:12:41.068Z,5.54
2023-03-27T04:13:47.396Z,5.60
2023-03-27T04:14:52.572Z,5.58
2023-03-27T04:16:14.590Z,5.55
2023-03-27T04:17:19.278Z,5.55
2023-03-27T04:18:27.846Z,5.65
2023-03-27T04:19:31.223Z,5.61
2023-03-27T04:20:36.399Z,5.72
2023-03-27T04:21:42.990Z,5.78
2023-03-27T04:22:47.209Z,6.06
2023-03-27T04:23:52.783Z,6.32
2023-03-27T04:24:58.374Z,6.69
2023-03-27T04:26:03.636Z,7.19
2023-03-27T04:27:12.120Z,7.72
2023-03-27T04:28:17.998Z,8.42
2023-03-27T04:29:24.201Z,8.66
2023-03-27T04:30:39.981Z,8.56
2023-03-27T04:32:01.461Z,8.49
2023-03-27T04:33:18.758Z,8.29
2023-03-27T04:34:27.375Z,8.04
2023-03-27T04:35:34.971Z,8.24
2023-03-27T04:36:45.843Z,8.93
2023-03-27T04:37:50.463Z,9.59
2023-03-27T04:39:01.410Z,9.88
2023-03-27T04:40:04.547Z,9.75
2023-03-27T04:41:07.872Z,9.60
2023-03-27T04:42:10.655Z,9.56
2023-03-27T04:43:14.375Z,9.84
2023-03-27T04:44:18.126Z,10.29
2023-03-27T04:45:21.518Z,10.86
2023-03-27T04:46:25.259Z,11.61
2023-03-27T04:47:30.154Z,11.88
2023-03-27T04:48:35.684Z,11.47
2023-03-27T04:49:45.358Z,11.12
2023-03-27T04:50:53.467Z,11.07
2023-03-27T04:52:10.169Z,11.32
2023-03-27T04:53:13.459Z,12.04
2023-03-27T04:54:17.803Z,12.26
2023-03-27T04:55:27.922Z,12.46
2023-03-27T04:56:31.302Z,13.03
2023-03-27T04:57:36.514Z,13.52
2023-03-27T04:58:41.567Z,13.79
2023-03-27T04:59:46.534Z,14.27
2023-03-27T05:01:07.258Z,14.62
2023-03-27T05:02:28.147Z,15.04
2023-03-27T05:03:36.130Z,15.60
2023-03-27T05:04:44.212Z,16.23
2023-03-27T05:05:52.686Z,16.06
2023-03-27T05:06:56.417Z,15.74
2023-03-27T05:07:59.652Z,15.54
2023-03-27T05:09:02.757Z,15.75
2023-03-27T05:10:07.799Z,16.61
2023-03-27T05:11:11.430Z,17.19
2023-03-27T05:12:16.210Z,17.41
2023-03-27T05:13:23.913Z,17.76
2023-03-27T05:14:27.392Z,17.63
2023-03-27T05:15:32.949Z,17.39
2023-03-27T05:16:38.504Z,17.19
2023-03-27T05:17:43.734Z,16.63
2023-03-27T05:18:48.185Z,16.96
2023-03-27T05:19:51.852Z,17.30
2023-03-27T05:20:55.532Z,17.59
2023-03-27T05:21:58.182Z,18.15
2023-03-27T05:23:01.556Z,18.49
2023-03-27T05:24:05.745Z,18.96
2023-03-27T05:25:10.201Z,18.94
2023-03-27T05:26:13.531Z,18.72
2023-03-27T05:27:27.603Z,18.32
2023-03-27T05:28:32.005Z,17.89
2023-03-27T05:29:46.445Z,17.40
2023-03-27T05:30:42.554Z,17.57
2023-03-27T05:31:48.017Z,17.58
2023-03-27T05:33:09.498Z,17.26
2023-03-27T05:34:13.958Z,16.90
2023-03-27T05:35:20.780Z,16.62
2023-03-27T05:36:26.870Z,16.33
2023-03-27T05:37:29.986Z,16.08
2023-03-27T05:38:55.153Z,16.17
2023-03-27T05:40:01.884Z,16.20
2023-03-27T05:41:06.544Z,16.41
2023-03-27T05:42:11.764Z,16.91
2023-03-27T05:43:18.106Z,16.28
2023-03-27T05:44:21.714Z,15.58
2023-03-27T05:45:25.524Z,14.06
2023-03-27T05:46:28.680Z,14.39
2023-03-27T05:47:33.733Z,14.90
2023-03-27T05:48:38.046Z,15.95
2023-03-27T05:49:42.631Z,16.48
2023-03-27T05:50:47.815Z,16.08
2023-03-27T05:51:53.137Z,15.51
2023-03-27T05:52:57.632Z,15.11
2023-03-27T05:54:02.703Z,14.97
2023-03-27T05:55:14.387Z,15.09
2023-03-27T05:56:18.338Z,15.08
2023-03-27T05:57:22.859Z,15.01
2023-03-27T05:58:28.205Z,14.82
2023-03-27T05:59:33.654Z,14.85
2023-03-27T06:00:42.215Z,15.21
2023-03-27T06:01:46.054Z,15.89
2023-03-27T06:02:50.142Z,16.61
2023-03-27T06:03:56.121Z,17.50
2023-03-27T06:05:01.760Z,18.20
2023-03-27T06:06:11.232Z,17.82
2023-03-27T06:07:15.235Z,18.42
2023-03-27T06:08:22.254Z,18.91
2023-03-27T06:09:25.144Z,19.74
2023-03-27T06:10:29.774Z,19.68
2023-03-27T06:11:34.918Z,19.35
2023-03-27T06:12:37.464Z,19.04
2023-03-27T06:13:44.224Z,18.31
2023-03-27T06:14:48.608Z,18.64
2023-03-27T06:16:02.308Z,19.83
2023-03-27T06:17:22.214Z,20.71
2023-03-27T06:18:26.924Z,20.66
2023-03-27T06:19:32.046Z,20.20
2023-03-27T06:20:35.464Z,19.98
2023-03-27T06:21:41.118Z,20.47
2023-03-27T06:22:51.234Z,21.22
2023-03-27T06:23:56.816Z,21.06
2023-03-27T06:24:59.987Z,21.70
2023-03-27T06:26:04.672Z,21.86
2023-03-27T06:27:10.807Z,21.71
2023-03-27T06:28:13.630Z,20.65
2023-03-27T06:29:22.444Z,19.56
2023-03-27T06:30:27.609Z,19.18
2023-03-27T06:31:40.393Z,18.83
2023-03-27T06:32:47.424Z,19.21
2023-03-27T06:33:53.421Z,20.09
2023-03-27T06:34:58.620Z,20.42
2023-03-27T06:36:05.658Z,20.00
2023-03-27T06:37:14.651Z,20.30
2023-03-27T06:38:21.377Z,20.31
2023-03-27T06:39:25.244Z,20.83
2023-03-27T06:40:29.564Z,21.27
2023-03-27T06:41:34.940Z,20.54
2023-03-27T06:42:44.177Z,19.76
2023-03-27T06:43:58.177Z,18.84
2023-03-27T06:45:06.399Z,18.19
2023-03-27T06:46:42.705Z,18.09
2023-03-27T06:47:56.154Z,18.60
2023-03-27T06:49:01.776Z,18.59
2023-03-27T06:50:06.401Z,18.56
2023-03-27T06:51:09.774Z,18.35
2023-03-27T06:52:14.531Z,18.21
2023-03-27T06:54:24.758Z,18.42
2023-03-27T06:55:30.955Z,18.11
2023-03-27T06:56:34.500Z,18.12
2023-03-27T06:57:52.887Z,18.11
2023-03-27T06:58:56.032Z,18.01
2023-03-27T07:00:06.637Z,18.36
2023-03-27T07:01:19.037Z,18.44
2023-03-27T07:02:42.723Z,18.09
2023-03-27T07:03:46.975Z,18.95
2023-03-27T07:05:07.416Z,19.87
2023-03-27T07:06:05.723Z,20.86
2023-03-27T07:07:10.672Z,21.49
2023-03-27T07:08:23.690Z,22.05
2023-03-27T07:09:22.096Z,22.75
2023-03-27T07:10:27.509Z,22.93
2023-03-27T07:11:31.891Z,22.60
2023-03-27T07:12:37.036Z,23.24
2023-03-27T07:13:41.702Z,23.36
2023-03-27T07:14:48.689Z,23.93
2023-03-27T07:15:52.399Z,24.36
2023-03-27T07:16:56.043Z,24.35
2023-03-27T07:18:01.491Z,24.23
2023-03-27T07:19:04.815Z,25.12
2023-03-27T07:20:09.392Z,25.54
2023-03-27T07:21:13.837Z,25.83
2023-03-27T07:22:19.297Z,26.32
2023-03-27T07:23:22.397Z,26.65
2023-03-27T07:24:27.333Z,27.11
2023-03-27T07:25:38.045Z,27.59
2023-03-27T07:26:43.041Z,27.92
2023-03-27T07:27:48.360Z,27.06
2023-03-27T07:28:52.311Z,26.50
2023-03-27T07:29:57.959Z,26.44
2023-03-27T07:31:10.496Z,26.77
2023-03-27T07:32:15.067Z,27.26
2023-03-27T07:33:18.320Z,27.52
2023-03-27T07:34:21.605Z,27.03
2023-03-27T07:35:44.154Z,27.21
2023-03-27T07:37:04.048Z,26.90
2023-03-27T07:38:09.373Z,27.39
2023-03-27T07:39:14.601Z,27.84
2023-03-27T07:40:23.774Z,28.29
2023-03-27T07:41:30.767Z,29.14
2023-03-27T07:42:36.191Z,29.26
2023-03-27T07:43:41.477Z,29.49
2023-03-27T07:44:45.109Z,29.61
2023-03-27T07:45:49.183Z,29.70
2023-03-27T07:46:52.229Z,29.46
2023-03-27T07:47:55.523Z,28.16
2023-03-27T07:48:59.628Z,27.35
2023-03-27T07:50:02.787Z,27.13
2023-03-27T07:52:11.270Z,28.13
2023-03-27T07:53:33.527Z,27.53
2023-03-27T07:54:25.843Z,26.61
2023-03-27T07:55:33.406Z,26.46
2023-03-27T07:56:38.873Z,27.64
2023-03-27T07:58:00.423Z,28.22
2023-03-27T07:58:55.901Z,28.52
2023-03-27T07:59:58.181Z,28.45
2023-03-27T08:01:04.903Z,27.38
2023-03-27T08:02:10.544Z,27.16
2023-03-27T08:03:14.904Z,27.46
2023-03-27T08:04:20.689Z,27.71
2023-03-27T08:05:40.954Z,27.07
2023-03-27T08:06:47.429Z,27.31
2023-03-27T08:07:53.690Z,26.48
2023-03-27T08:09:02.863Z,26.57
2023-03-27T08:10:07.975Z,26.89
2023-03-27T08:11:23.086Z,27.16
2023-03-27T08:12:19.083Z,27.49
2023-03-27T08:13:24.383Z,26.86
2023-03-27T08:14:26.970Z,27.06
2023-03-27T08:15:32.130Z,27.43
2023-03-27T08:16:37.416Z,26.95
2023-03-27T08:17:41.217Z,26.97
2023-03-27T08:18:46.469Z,27.44
2023-03-27T08:19:50.415Z,27.12
2023-03-27T08:20:57.656Z,26.73
2023-03-27T08:22:01.668Z,27.34
2023-03-27T08:23:07.107Z,26.69
2023-03-27T08:24:17.955Z,26.20
2023-03-27T08:25:28.084Z,26.99
2023-03-27T08:26:32.919Z,27.07
2023-03-27T08:27:39.451Z,26.57
2023-03-27T08:28:42.931Z,26.13
2023-03-27T08:29:45.530Z,25.28
2023-03-27T08:30:49.252Z,24.71
2023-03-27T08:31:52.887Z,24.61
2023-03-27T08:32:56.319Z,25.09
2023-03-27T08:33:59.580Z,25.31
2023-03-27T08:35:04.493Z,24.84
2023-03-27T08:36:10.477Z,24.46
2023-03-27T08:37:13.817Z,24.09
2023-03-27T08:38:26.135Z,23.59
2023-03-27T08:39:42.932Z,23.56
2023-03-27T08:40:54.496Z,23.59
2023-03-27T08:43:12.623Z,23.03
2023-03-27T08:44:17.846Z,22.77
2023-03-27T08:45:24.224Z,23.26
2023-03-27T08:46:45.558Z,23.39
2023-03-27T08:48:09.544Z,23.17
2023-03-27T08:49:19.045Z,23.01
2023-03-27T08:50:43.002Z,22.48
2023-03-27T08:51:49.872Z,22.17
2023-03-27T08:52:53.543Z,22.13
2023-03-27T08:54:04.259Z,21.76
2023-03-27T08:55:09.705Z,22.12
2023-03-27T08:56:17.072Z,21.34
2023-03-27T08:57:23.789Z,21.31
2023-03-27T08:58:28.693Z,20.41
2023-03-27T08:59:37.394Z,19.69
2023-03-27T09:00:43.002Z,19.52
2023-03-27T09:01:51.339Z,20.03
2023-03-27T09:02:56.757Z,20.28
2023-03-27T09:04:16.512Z,20.69
2023-03-27T09:05:30.094Z,21.32
2023-03-27T09:06:37.160Z,21.49
2023-03-27T09:07:54.084Z,21.20
2023-03-27T09:09:10.492Z,20.48
2023-03-27T09:10:18.639Z,21.11
2023-03-27T09:11:28.943Z,21.63
2023-03-27T09:12:46.666Z,21.75
2023-03-27T09:13:52.013Z,21.49
2023-03-27T09:15:11.019Z,21.35
2023-03-27T09:16:23.452Z,20.80
2023-03-27T09:17:30.902Z,20.30
2023-03-27T09:18:40.663Z,19.81
2023-03-27T09:19:53.626Z,19.41
2023-03-27T09:21:00.528Z,20.05
2023-03-27T09:22:08.744Z,20.93
2023-03-27T09:23:39.961Z,21.28
2023-03-27T09:24:52.559Z,20.35
2023-03-27T09:26:02.435Z,20.65
2023-03-27T09:27:17.835Z,20.88
2023-03-27T09:28:24.894Z,20.62
2023-03-27T09:29:35.975Z,20.40
2023-03-27T09:30:44.253Z,20.44
2023-03-27T09:31:51.401Z,20.41
2023-03-27T09:32:56.469Z,20.29
2023-03-27T09:34:03.715Z,20.40
2023-03-27T09:35:07.236Z,20.13
2023-03-27T09:36:11.278Z,19.97
2023-03-27T09:37:17.377Z,19.96
2023-03-27T09:38:25.505Z,19.15
2023-03-27T09:39:35.823Z,18.90
2023-03-27T09:40:46.504Z,18.85
2023-03-27T09:41:51.664Z,19.27
2023-03-27T09:42:55.969Z,19.79
2023-03-27T09:44:07.164Z,20.01
2023-03-27T09:45:12.640Z,20.15
2023-03-27T09:46:19.602Z,19.87
2023-03-27T09:47:25.669Z,19.87
2023-03-27T09:48:32.183Z,20.09
2023-03-27T09:49:35.769Z,20.08
2023-03-27T09:50:48.434Z,19.75
2023-03-27T09:51:58.760Z,19.89
2023-03-27T09:53:25.987Z,19.63
2023-03-27T09:54:35.885Z,19.72
2023-03-27T09:55:48.744Z,19.82
2023-03-27T09:56:53.790Z,19.94
2023-03-27T09:58:05.017Z,20.08
2023-03-27T09:59:13.601Z,20.19
2023-03-27T10:00:29.214Z,19.92
2023-03-27T10:01:36.674Z,19.73
2023-03-27T10:02:55.439Z,20.03
2023-03-27T10:04:00.186Z,20.38
2023-03-27T10:05:11.647Z,20.43
2023-03-27T10:06:17.098Z,20.54
2023-03-27T10:07:25.310Z,20.48
2023-03-27T10:08:51.667Z,19.94
2023-03-27T10:10:15.680Z,20.05
2023-03-27T10:11:33.340Z,20.28
2023-03-27T10:12:40.529Z,19.93
2023-03-27T10:13:47.704Z,20.32
2023-03-27T10:14:53.626Z,20.44
2023-03-27T10:15:59.292Z,20.19
2023-03-27T10:17:06.324Z,20.54
2023-03-27T10:18:15.603Z,20.71
2023-03-27T10:19:20.864Z,20.69
2023-03-27T10:20:26.784Z,20.17
2023-03-27T10:21:32.344Z,20.18
2023-03-27T10:22:40.119Z,19.79
2023-03-27T10:23:45.192Z,19.83
2023-03-27T10:24:54.080Z,20.09
2023-03-27T10:26:01.965Z,20.35
2023-03-27T10:27:08.580Z,20.38
2023-03-27T10:28:21.065Z,20.25
2023-03-27T10:29:32.599Z,19.93
2023-03-27T10:30:38.266Z,19.73
2023-03-27T10:31:57.002Z,19.92
2023-03-27T10:33:11.222Z,19.92
2023-03-27T10:34:33.185Z,19.90
2023-03-27T10:35:55.504Z,19.83
2023-03-27T10:37:04.960Z,19.37
2023-03-27T10:38:13.499Z,18.77
2023-03-27T10:39:21.416Z,18.46
2023-03-27T10:40:30.859Z,18.50
2023-03-27T10:41:36.185Z,18.12
2023-03-27T10:42:40.842Z,17.66
2023-03-27T10:43:44.031Z,17.48
2023-03-27T10:44:50.492Z,17.66
2023-03-27T10:45:59.501Z,17.76
2023-03-27T10:47:04.541Z,17.80
2023-03-27T10:48:08.365Z,17.90
2023-03-27T10:49:25.140Z,17.90
2023-03-27T10:50:30.541Z,17.78
2023-03-27T10:51:46.075Z,17.84
2023-03-27T10:52:44.647Z,17.90
2023-03-27T10:53:55.894Z,18.02
2023-03-27T10:55:06.544Z,18.14
2023-03-27T10:56:12.114Z,17.98
2023-03-27T10:57:19.136Z,18.20
2023-03-27T10:58:40.799Z,18.72
2023-03-27T10:59:52.405Z,19.05
2023-03-27T11:01:03.044Z,18.91
2023-03-27T11:02:15.429Z,18.74
2023-03-27T11:03:21.369Z,18.75
2023-03-27T11:04:36.850Z,18.33
2023-03-27T11:05:46.779Z,18.32
2023-03-27T11:06:53.883Z,18.03
2023-03-27T11:08:03.253Z,17.89
2023-03-27T11:09:24.665Z,18.04
2023-03-27T11:10:37.150Z,17.85
2023-03-27T11:11:44.697Z,17.95
2023-03-27T11:12:53.025Z,18.12
2023-03-27T11:14:01.042Z,17.87
2023-03-27T11:15:08.999Z,17.75
2023-03-27T11:16:16.037Z,17.65
2023-03-27T11:17:29.127Z,17.56
2023-03-27T11:18:35.182Z,17.54
2023-03-27T11:19:42.277Z,17.45
2023-03-27T11:21:09.813Z,17.28
2023-03-27T11:22:17.308Z,17.24
2023-03-27T11:23:22.857Z,16.98
2023-03-27T11:24:32.705Z,17.10
2023-03-27T11:25:44.999Z,17.30
2023-03-27T11:26:51.019Z,17.20
2023-03-27T11:28:04.924Z,17.25
2023-03-27T11:29:10.788Z,17.06
2023-03-27T11:30:24.161Z,17.09
2023-03-27T11:31:40.662Z,17.30
2023-03-27T11:32:53.565Z,17.46
2023-03-27T11:34:01.515Z,17.38
2023-03-27T11:35:09.811Z,17.55
2023-03-27T11:36:32.095Z,17.72
2023-03-27T11:37:40.970Z,17.58
2023-03-27T11:38:46.580Z,17.61
2023-03-27T11:40:01.540Z,17.65
2023-03-27T11:41:06.488Z,17.81
2023-03-27T11:42:14.555Z,18.00
2023-03-27T11:43:19.424Z,18.22
2023-03-27T11:44:24.254Z,18.42
2023-03-27T11:45:47.129Z,18.44
2023-03-27T11:47:04.096Z,18.41
2023-03-27T11:48:11.088Z,18.35
2023-03-27T11:49:27.589Z,18.44
2023-03-27T11:50:44.448Z,18.56
2023-03-27T11:51:53.714Z,18.50
2023-03-27T11:53:02.118Z,18.53
2023-03-27T11:55:39.422Z,18.36
2023-03-27T11:56:48.723Z,18.50
2023-03-27T11:58:14.825Z,18.73
2023-03-27T11:59:31.599Z,18.67
2023-03-27T12:00:42.612Z,18.89
2023-03-27T12:01:49.010Z,18.82
2023-03-27T12:03:02.875Z,18.72
2023-03-27T12:04:26.006Z,18.95
2023-03-27T12:05:42.713Z,18.87
2023-03-27T12:06:51.150Z,18.76
2023-03-27T12:08:04.913Z,18.64
2023-03-27T12:09:10.983Z,18.51
2023-03-27T12:10:23.598Z,18.79
2023-03-27T12:11:50.594Z,18.94
2023-03-27T12:12:56.804Z,18.83
2023-03-27T12:14:08.937Z,18.83
2023-03-27T12:15:37.758Z,18.62
2023-03-27T12:16:59.650Z,18.50
2023-03-27T12:18:08.530Z,18.65
2023-03-27T12:19:34.359Z,18.79
2023-03-27T12:20:52.768Z,18.87
2023-03-27T12:22:03.829Z,18.86
2023-03-27T12:23:09.505Z,18.57
2023-03-27T12:24:19.697Z,18.20
2023-03-27T12:25:36.048Z,18.15
2023-03-27T12:26:49.082Z,18.16
2023-03-27T12:28:23.093Z,18.07
2023-03-27T12:29:33.052Z,18.28
2023-03-27T12:30:42.073Z,17.99
2023-03-27T12:31:53.647Z,17.79
2023-03-27T12:33:11.094Z,18.06
2023-03-27T12:34:22.687Z,18.16
2023-03-27T12:35:28.957Z,18.32
2023-03-27T12:36:36.459Z,18.42
2023-03-27T12:37:42.084Z,18.52
2023-03-27T12:38:47.139Z,18.52
2023-03-27T12:39:56.063Z,18.41
2023-03-27T12:41:06.365Z,18.32
2023-03-27T12:42:45.164Z,18.36
2023-03-27T12:43:53.201Z,18.44
2023-03-27T12:45:07.197Z,18.33
2023-03-27T12:46:12.509Z,18.26
2023-03-27T12:47:22.973Z,17.96
2023-03-27T12:48:30.099Z,17.86
2023-03-27T12:49:46.410Z,17.87
2023-03-27T12:50:43.767Z,17.82
2023-03-27T12:51:51.184Z,17.92
2023-03-27T12:53:21.057Z,17.92
2023-03-27T12:54:28.229Z,17.93
2023-03-27T12:55:35.728Z,17.98
2023-03-27T12:56:42.412Z,17.94
2023-03-27T12:57:46.606Z,18.01
2023-03-27T12:58:57.079Z,18.17
2023-03-27T13:00:21.985Z,18.17
2023-03-27T13:01:27.572Z,18.20
2023-03-27T13:02:50.156Z,18.16
2023-03-27T13:03:56.005Z,18.11
2023-03-27T13:05:27.046Z,18.27
2023-03-27T13:06:35.191Z,18.23
2023-03-27T13:07:57.525Z,18.16
2023-03-27T13:09:09.561Z,17.77
2023-03-27T13:10:16.464Z,17.83
2023-03-27T13:11:40.310Z,17.76
2023-03-27T13:13:06.164Z,17.88
2023-03-27T13:14:23.793Z,18.06
2023-03-27T13:15:30.190Z,18.00
2023-03-27T13:16:37.153Z,17.78
2023-03-27T13:17:47.051Z,17.73
2023-03-27T13:18:53.435Z,17.77
2023-03-27T13:20:02.683Z,17.83
2023-03-27T13:21:12.483Z,17.85
2023-03-27T13:22:18.158Z,17.72
2023-03-27T13:23:25.732Z,17.74
2023-03-27T13:24:48.762Z,17.86
2023-03-27T13:25:59.898Z,17.96
2023-03-27T13:27:08.520Z,17.90
2023-03-27T13:28:17.984Z,18.01
2023-03-27T13:29:27.919Z,17.98
2023-03-27T13:30:50.570Z,17.91
2023-03-27T13:32:04.516Z,17.88
2023-03-27T13:33:21.642Z,17.66
2023-03-27T13:34:29.940Z,17.64
2023-03-27T13:35:45.656Z,17.57
2023-03-27T13:36:50.608Z,17.49
2023-03-27T13:37:58.820Z,17.58
2023-03-27T13:39:08.389Z,17.66
2023-03-27T13:40:23.680Z,17.94
2023-03-27T13:41:49.237Z,18.01
2023-03-27T13:42:59.529Z,17.95
2023-03-27T13:44:03.748Z,17.85
2023-03-27T13:45:22.835Z,17.92
2023-03-27T13:46:29.595Z,18.01
2023-03-27T13:47:40.104Z,17.88
2023-03-27T13:48:58.020Z,17.94
2023-03-27T13:50:14.422Z,17.88
2023-03-27T13:51:29.550Z,18.02
2023-03-27T13:53:01.981Z,17.80
2023-03-27T13:54:29.657Z,17.66
2023-03-27T13:55:40.606Z,17.33
2023-03-27T13:56:57.366Z,17.18
2023-03-27T13:58:24.516Z,17.11
2023-03-27T13:59:40.569Z,17.18
2023-03-27T14:00:53.906Z,16.98
2023-03-27T14:01:59.152Z,16.74
2023-03-27T14:03:25.957Z,16.65
2023-03-27T14:04:52.440Z,16.57
2023-03-27T14:06:11.529Z,16.52
2023-03-27T14:07:17.634Z,16.57
2023-03-27T14:08:29.203Z,16.44
2023-03-27T14:10:10.632Z,16.36
2023-03-27T14:11:24.137Z,16.47
2023-03-27T14:12:41.975Z,16.41
2023-03-27T14:14:02.689Z,16.39
2023-03-27T14:15:10.611Z,16.29
2023-03-27T14:16:36.359Z,16.24
2023-03-27T14:17:49.413Z,16.22
2023-03-27T14:19:11.751Z,16.35
2023-03-27T14:20:23.962Z,16.42
2023-03-27T14:21:37.873Z,16.43
2023-03-27T14:22:33.620Z,16.46
2023-03-27T14:23:39.871Z,16.42
2023-03-27T14:24:49.677Z,16.42
2023-03-27T14:26:08.711Z,16.42
2023-03-27T14:27:18.088Z,16.45
2023-03-27T14:28:31.381Z,16.39
2023-03-27T14:29:35.612Z,16.33
2023-03-27T14:30:42.986Z,16.21
2023-03-27T14:32:07.612Z,16.09
2023-03-27T14:33:14.342Z,16.19
2023-03-27T14:34:23.271Z,16.16
2023-03-27T14:35:30.649Z,16.14
2023-03-27T14:36:40.632Z,16.12
2023-03-27T14:37:45.536Z,16.03
2023-03-27T14:38:53.884Z,16.07
2023-03-27T14:39:58.861Z,16.10
2023-03-27T14:41:05.535Z,16.07
2023-03-27T14:42:20.115Z,15.87
2023-03-27T14:43:27.026Z,15.85
2023-03-27T14:44:32.539Z,15.78
2023-03-27T14:45:39.002Z,15.82
2023-03-27T14:46:45.907Z,15.72
2023-03-27T14:47:54.281Z,15.57
2023-03-27T14:49:00.856Z,15.63
2023-03-27T14:50:04.987Z,15.57
2023-03-27T14:51:14.957Z,15.57
2023-03-27T14:52:23.070Z,15.36
2023-03-27T14:53:47.125Z,15.22
2023-03-27T14:54:55.477Z,15.20
2023-03-27T14:56:02.043Z,15.33
2023-03-27T14:57:15.786Z,15.36
2023-03-27T14:58:24.254Z,15.31
2023-03-27T14:59:38.660Z,15.26
2023-03-27T15:00:44.321Z,15.36
2023-03-27T15:01:51.494Z,15.28